Hakuryoumaru No.15 — JD2439 — position and weather

sailwx.info

Track history (hours):
 
Tides and Currents Weather Stations Pressure Air Temp Water Temp Dewpoint Dewpoint Depression Visibility Wind Speed Wind Dir Waves Ship Positions

Hakuryoumaru No.15

Last reported at 2017-Feb-19 22:19 UTC. Time now 2017-Feb-20 18:30 UTC.
Position N 33°50' E 132°17'.

Length 80 m; draft 4.8 m.

Type: Tanker. MMSI: 431000243.

Date/timePositionNaut miles runAvg speedWind from/ knotsBaromVisibWave heightAir tempDewpointWater temp
2017-Feb-19 22:19N 33°50' E 132°17'1012.6
2017-Feb-19 21:34N 33°52' E 132°29'1312.5
2017-Feb-19 20:34N 33°58' E 132°42'11811.7
2017-Feb-19 10:28N 34°37' E 134°57'1010.9
2017-Feb-19 09:33N 34°35' E 135°09'1211.8
2017-Feb-19 08:30N 34°33' E 135°24'1 0.2
2017-Feb-19 04:33N 34°33' E 135°25'5 5.2
2017-Feb-19 03:33N 34°33' E 135°19'0 0.0
2017-Feb-19 00:28N 34°33' E 135°19'0 0.0
2017-Feb-18 23:28N 34°33' E 135°19'0 0.0
2017-Feb-18 22:10N 34°33' E 135°19'0 0.0
2017-Feb-18 21:28N 34°33' E 135°19'4 3.9
2017-Feb-18 20:32N 34°34' E 135°14'13111.9
2017-Feb-18 09:33N 33°57' E 132°42'1312.4
2017-Feb-18 08:32N 33°49' E 132°31'  
2017-Feb-12 23:33N 33°38' E 132°18'1211.7
2017-Feb-12 22:32N 33°47' E 132°28'1212.2
2017-Feb-12 21:33N 33°55' E 132°38'12311.9
2017-Feb-12 11:12N 34°37' E 134°58'812.9
2017-Feb-12 10:33N 34°35' E 135°07'1312.6
2017-Feb-12 09:32N 34°33' E 135°23'2 1.0
2017-Feb-12 07:08N 34°33' E 135°26'4 7.8
2017-Feb-12 06:33N 34°33' E 135°20'1312.5
2017-Feb-12 05:31N 34°24' E 135°09'1110.9
2017-Feb-12 04:33N 34°15' E 135°03'8 1.7
2017-Feb-11 23:33N 34°07' E 135°08'  
Track history (hours):
 
Tides and Currents Weather Stations Pressure Air Temp Water Temp Dewpoint Dewpoint Depression Visibility Wind Speed Wind Dir Waves Ship Positions

Hakuryoumaru No.15

Last reported at 2017-Feb-19 22:19 UTC. Time now 2017-Feb-20 18:30 UTC.
Position N 33°50' E 132°17'.

Length 80 m; draft 4.8 m.

Type: Tanker. MMSI: 431000243.

Date/timePositionNaut miles runAvg speedWind from/ knotsBaromVisibWave heightAir tempDewpointWater temp
2017-Feb-19 22:19N 33°50' E 132°17'1012.6
2017-Feb-19 21:34N 33°52' E 132°29'1312.5
2017-Feb-19 20:34N 33°58' E 132°42'11811.7
2017-Feb-19 10:28N 34°37' E 134°57'1010.9
2017-Feb-19 09:33N 34°35' E 135°09'1211.8
2017-Feb-19 08:30N 34°33' E 135°24'1 0.2
2017-Feb-19 04:33N 34°33' E 135°25'5 5.2
2017-Feb-19 03:33N 34°33' E 135°19'0 0.0
2017-Feb-19 00:28N 34°33' E 135°19'0 0.0
2017-Feb-18 23:28N 34°33' E 135°19'0 0.0
2017-Feb-18 22:10N 34°33' E 135°19'0 0.0
2017-Feb-18 21:28N 34°33' E 135°19'4 3.9
2017-Feb-18 20:32N 34°34' E 135°14'13111.9
2017-Feb-18 09:33N 33°57' E 132°42'1312.4
2017-Feb-18 08:32N 33°49' E 132°31'  
2017-Feb-12 23:33N 33°38' E 132°18'1211.7
2017-Feb-12 22:32N 33°47' E 132°28'1212.2
2017-Feb-12 21:33N 33°55' E 132°38'12311.9
2017-Feb-12 11:12N 34°37' E 134°58'812.9
2017-Feb-12 10:33N 34°35' E 135°07'1312.6
2017-Feb-12 09:32N 34°33' E 135°23'2 1.0
2017-Feb-12 07:08N 34°33' E 135°26'4 7.8
2017-Feb-12 06:33N 34°33' E 135°20'1312.5
2017-Feb-12 05:31N 34°24' E 135°09'1110.9
2017-Feb-12 04:33N 34°15' E 135°03'8 1.7
2017-Feb-11 23:33N 34°07' E 135°08'  

Dump ship's entire track history